createdAt,value
2023-02-11T00:01:41.988Z,99402.53
2023-02-11T00:04:11.597Z,99390.69
2023-02-11T00:06:53.318Z,99384.34
2023-02-11T00:09:21.535Z,99383.09
2023-02-11T00:11:51.346Z,99387.41
2023-02-11T00:14:19.560Z,99385.38
2023-02-11T00:16:47.782Z,99371.25
2023-02-11T00:19:17.518Z,99382.72
2023-02-11T00:21:47.076Z,99385.16
2023-02-11T00:24:15.279Z,99379.84
2023-02-11T00:26:43.455Z,99375.91
2023-02-11T00:29:11.835Z,99362.22
2023-02-11T00:31:40.249Z,99376.34
2023-02-11T00:34:08.709Z,99367.94
2023-02-11T00:36:38.419Z,99380.03
2023-02-11T00:39:06.753Z,99359.75
2023-02-11T00:41:35.419Z,99361.78
2023-02-11T00:44:04.320Z,99368.53
2023-02-11T00:46:32.850Z,99368.72
2023-02-11T00:49:01.077Z,99377.94
2023-02-11T00:51:30.237Z,99364.19
2023-02-11T00:54:01.355Z,99366.25
2023-02-11T00:56:29.546Z,99350.06
2023-02-11T00:58:57.715Z,99356.81
2023-02-11T01:01:26.224Z,99365.41
2023-02-11T01:03:54.999Z,99357.44
2023-02-11T01:06:23.491Z,99353.50
2023-02-11T01:08:51.808Z,99370.31
2023-02-11T01:11:23.046Z,99368.25
2023-02-11T01:13:53.890Z,99369.88
2023-02-11T01:16:23.991Z,99364.78
2023-02-11T01:18:52.295Z,99360.25
2023-02-11T01:21:20.781Z,99366.19
2023-02-11T01:23:49.567Z,99361.69
2023-02-11T01:26:17.951Z,99362.31
2023-02-11T01:28:47.594Z,99367.63
2023-02-11T01:31:15.833Z,99359.63
2023-02-11T01:33:44.515Z,99354.72
2023-02-11T01:36:13.767Z,99351.66
2023-02-11T01:38:42.151Z,99346.94
2023-02-11T01:41:12.742Z,99350.22
2023-02-11T01:43:44.703Z,99364.97
2023-02-11T01:46:24.907Z,99372.75
2023-02-11T01:48:58.475Z,99349.59
2023-02-11T01:51:32.669Z,99366.59
2023-02-11T01:54:19.330Z,99356.97
2023-02-11T01:57:08.194Z,99361.28
2023-02-11T01:59:50.080Z,99366.81
2023-02-11T02:02:25.076Z,99381.75
2023-02-11T02:04:56.728Z,99359.63
2023-02-11T02:07:30.476Z,99353.91
2023-02-11T02:10:02.491Z,99345.31
2023-02-11T02:12:30.943Z,99354.09
2023-02-11T02:15:22.506Z,99345.47
2023-02-11T02:18:01.889Z,99359.59
2023-02-11T02:21:03.111Z,99349.16
2023-02-11T02:23:42.424Z,99355.31
2023-02-11T02:26:34.349Z,99338.50
2023-02-11T02:29:35.849Z,99344.88
2023-02-11T02:32:34.953Z,99337.91
2023-02-11T02:35:12.153Z,99349.59
2023-02-11T02:37:46.816Z,99338.94
2023-02-11T02:40:20.434Z,99351.44
2023-02-11T02:42:49.868Z,99358.63
2023-02-11T02:45:18.719Z,99374.59
2023-02-11T02:47:48.362Z,99370.28
2023-02-11T02:50:21.410Z,99372.34
2023-02-11T02:53:01.938Z,99366.81
2023-02-11T02:55:45.618Z,99364.97
2023-02-11T02:58:45.982Z,99356.97
2023-02-11T03:01:27.846Z,99349.81
2023-02-11T03:04:05.066Z,99354.31
2023-02-11T03:06:39.466Z,99341.22
2023-02-11T03:09:14.288Z,99342.84
2023-02-11T03:11:42.824Z,99349.00
2023-02-11T03:14:17.213Z,99359.84
2023-02-11T03:16:47.534Z,99349.19
2023-02-11T03:19:21.778Z,99361.69
2023-02-11T03:21:52.926Z,99364.56
2023-02-11T03:24:26.113Z,99363.53
2023-02-11T03:26:56.562Z,99360.06
2023-02-11T03:29:35.427Z,99343.66
2023-02-11T03:32:12.438Z,99353.91
2023-02-11T03:34:48.013Z,99357.38
2023-02-11T03:37:21.596Z,99354.72
2023-02-11T03:39:54.045Z,99357.38
2023-02-11T03:42:24.535Z,99357.38
2023-02-11T03:44:59.814Z,99366.41
2023-02-11T03:47:30.446Z,99369.47
2023-02-11T03:50:03.353Z,99371.72
2023-02-11T03:52:35.431Z,99381.78
2023-02-11T03:55:07.712Z,99387.72
2023-02-11T03:57:36.209Z,99387.50
2023-02-11T04:00:06.088Z,99387.50
2023-02-11T04:02:37.557Z,99398.97
2023-02-11T04:05:23.971Z,99389.34
2023-02-11T04:07:53.718Z,99400.00
2023-02-11T04:10:22.235Z,99397.34
2023-02-11T04:12:50.536Z,99400.81
2023-02-11T04:15:19.242Z,99410.66
2023-02-11T04:17:47.544Z,99410.03
2023-02-11T04:20:15.826Z,99405.94
2023-02-11T04:22:44.161Z,99427.47
2023-02-11T04:25:14.251Z,99427.06
2023-02-11T04:27:42.670Z,99425.03
2023-02-11T04:30:12.424Z,99428.50
2023-02-11T04:32:40.768Z,99435.25
2023-02-11T04:35:11.830Z,99437.75
2023-02-11T04:37:40.136Z,99439.38
2023-02-11T04:40:09.672Z,99431.81
2023-02-11T04:42:39.356Z,99434.88
2023-02-11T04:45:08.823Z,99435.28
2023-02-11T04:47:38.085Z,99448.78
2023-02-11T04:50:07.218Z,99435.91
2023-02-11T04:52:36.997Z,99440.81
2023-02-11T04:55:05.586Z,99448.81
2023-02-11T04:57:33.811Z,99454.34
2023-02-11T05:00:04.060Z,99451.06
2023-02-11T05:02:32.425Z,99444.91
2023-02-11T05:05:00.687Z,99461.69
2023-02-11T05:07:29.065Z,99462.53
2023-02-11T05:09:57.412Z,99456.00
2023-02-11T05:12:25.637Z,99461.69
2023-02-11T05:14:53.953Z,99471.53
2023-02-11T05:17:23.766Z,99479.72
2023-02-11T05:19:51.994Z,99480.53
2023-02-11T05:22:21.978Z,99480.53
2023-02-11T05:24:50.341Z,99478.06
2023-02-11T05:27:18.595Z,99490.16
2023-02-11T05:29:46.947Z,99488.50
2023-02-11T05:32:15.227Z,99485.66
2023-02-11T05:34:44.881Z,99491.59
2023-02-11T05:37:13.260Z,99483.41
2023-02-11T05:39:41.638Z,99485.88
2023-02-11T05:42:10.237Z,99491.41
2023-02-11T05:44:39.226Z,99509.63
2023-02-11T05:47:09.596Z,99510.25
2023-02-11T05:49:38.399Z,99501.25
2023-02-11T05:52:09.374Z,99516.16
2023-02-11T05:54:37.609Z,99515.13
2023-02-11T05:57:05.902Z,99506.75
2023-02-11T05:59:34.103Z,99513.50
2023-02-11T06:02:02.339Z,99529.69
2023-02-11T06:04:30.570Z,99535.22
2023-02-11T06:06:58.900Z,99544.03
2023-02-11T06:09:28.751Z,99537.69
2023-02-11T06:11:56.977Z,99541.16
2023-02-11T06:14:25.255Z,99546.28
2023-02-11T06:16:53.481Z,99552.41
2023-02-11T06:19:21.734Z,99557.31
2023-02-11T06:21:50.035Z,99555.06
2023-02-11T06:24:38.424Z,99574.13
2023-02-11T06:27:08.311Z,99575.34
2023-02-11T06:29:36.575Z,99581.06
2023-02-11T06:32:05.044Z,99598.06
2023-02-11T06:34:33.388Z,99598.66
2023-02-11T06:37:04.643Z,99602.34
2023-02-11T06:39:32.963Z,99597.22
2023-02-11T06:42:01.243Z,99602.13
2023-02-11T06:44:30.976Z,99611.72
2023-02-11T06:47:00.500Z,99610.31
2023-02-11T06:49:29.152Z,99613.16
2023-02-11T06:51:57.777Z,99630.53
2023-02-11T06:54:26.741Z,99633.59
2023-02-11T06:56:55.245Z,99655.06
2023-02-11T06:59:23.599Z,99668.34
2023-02-11T07:01:53.291Z,99677.16
2023-02-11T07:04:22.812Z,99676.13
2023-02-11T07:06:51.041Z,99699.06
2023-02-11T07:09:25.201Z,99693.75
2023-02-11T07:11:53.472Z,99702.31
2023-02-11T07:14:22.070Z,99715.22
2023-02-11T07:16:51.004Z,99734.06
2023-02-11T07:19:20.781Z,99731.41
2023-02-11T07:21:49.919Z,99730.19
2023-02-11T07:24:18.309Z,99737.34
2023-02-11T07:26:46.574Z,99752.28
2023-02-11T07:29:14.804Z,99769.47
2023-02-11T07:31:43.316Z,99774.78
2023-02-11T07:34:12.240Z,99780.47
2023-02-11T07:36:43.820Z,99779.63
2023-02-11T07:39:12.589Z,99792.09
2023-02-11T07:41:40.912Z,99813.09
2023-02-11T07:44:12.359Z,99835.00
2023-02-11T07:46:43.160Z,99841.53
2023-02-11T07:49:11.845Z,99852.81
2023-02-11T07:51:41.530Z,99856.94
2023-02-11T07:54:12.228Z,99865.50
2023-02-11T07:56:40.654Z,99885.41
2023-02-11T07:59:08.987Z,99906.94
2023-02-11T08:01:37.164Z,99910.44
2023-02-11T08:04:05.940Z,99913.72
2023-02-11T08:06:41.332Z,99908.59
2023-02-11T08:09:16.920Z,99927.44
2023-02-11T08:11:46.918Z,99960.00
2023-02-11T08:14:15.330Z,99968.63
2023-02-11T08:16:43.867Z,99976.06
2023-02-11T08:19:14.563Z,99996.66
2023-02-11T08:21:43.235Z,99993.91
2023-02-11T08:24:13.522Z,100007.94
2023-02-11T08:26:41.834Z,100034.88
2023-02-11T08:29:12.908Z,100066.09
2023-02-11T08:31:43.746Z,100096.41
2023-02-11T08:34:14.600Z,100102.97
2023-02-11T08:36:45.094Z,100114.31
2023-02-11T08:39:20.644Z,100129.47
2023-02-11T08:41:50.691Z,100163.31
2023-02-11T08:44:19.742Z,100173.41
2023-02-11T08:46:48.951Z,100186.56
2023-02-11T08:49:17.542Z,100192.19
2023-02-11T08:51:47.211Z,100199.81
2023-02-11T08:54:17.673Z,100209.41
2023-02-11T08:56:50.188Z,100210.75
2023-02-11T08:59:21.917Z,100218.19
2023-02-11T09:01:50.640Z,100231.59
2023-02-11T09:04:19.306Z,100257.06
2023-02-11T09:06:49.257Z,100273.28
2023-02-11T09:09:18.970Z,100290.00
2023-02-11T09:11:48.338Z,100284.34
2023-02-11T09:14:19.881Z,100300.53
2023-02-11T09:16:48.139Z,100308.66
2023-02-11T09:19:16.487Z,100306.31
2023-02-11T09:21:45.660Z,100309.44
2023-02-11T09:24:13.913Z,100309.94
2023-02-11T09:26:44.387Z,100323.97
2023-02-11T09:29:12.776Z,100327.09
2023-02-11T09:31:41.177Z,100334.84
2023-02-11T09:34:09.720Z,100352.88
2023-02-11T09:36:40.227Z,100365.13
2023-02-11T09:39:12.637Z,100365.47
2023-02-11T09:42:01.083Z,100382.94
2023-02-11T09:44:32.846Z,100400.31
2023-02-11T09:47:03.386Z,100404.63
2023-02-11T09:49:40.517Z,100407.47
2023-02-11T09:52:18.226Z,100405.34
2023-02-11T09:54:57.128Z,100416.28
2023-02-11T09:57:31.407Z,100425.09
2023-02-11T09:59:59.783Z,100427.22
2023-02-11T10:02:36.619Z,100439.66
2023-02-11T10:05:19.638Z,100449.59
2023-02-11T10:07:55.874Z,100443.38
2023-02-11T10:10:37.043Z,100467.22
2023-02-11T10:13:31.453Z,100470.41
2023-02-11T10:16:07.384Z,100484.34
2023-02-11T10:18:45.105Z,100492.84
2023-02-11T10:21:27.006Z,100505.44
2023-02-11T10:24:01.510Z,100506.63
2023-02-11T10:26:40.839Z,100511.25
2023-02-11T10:29:20.408Z,100530.44
2023-02-11T10:31:51.099Z,100523.16
2023-02-11T10:34:19.382Z,100541.69
2023-02-11T10:36:47.762Z,100536.84
2023-02-11T10:39:19.741Z,100541.69
2023-02-11T10:41:50.050Z,100555.56
2023-02-11T10:44:26.172Z,100554.56
2023-02-11T10:46:55.837Z,100577.22
2023-02-11T10:49:40.589Z,100573.25
2023-02-11T10:52:20.947Z,100584.84
2023-02-11T10:55:16.218Z,100587.22
2023-02-11T10:57:53.703Z,100598.22
2023-02-11T11:00:34.232Z,100605.38
2023-02-11T11:03:03.402Z,100614.78
2023-02-11T11:05:34.062Z,100634.00
2023-02-11T11:08:06.090Z,100649.22
2023-02-11T11:10:43.714Z,100655.22
2023-02-11T11:13:31.133Z,100670.81
2023-02-11T11:16:17.443Z,100674.28
2023-02-11T11:18:47.075Z,100687.03
2023-02-11T11:21:17.709Z,100698.31
2023-02-11T11:23:55.354Z,100709.00
2023-02-11T11:26:24.442Z,100717.44
2023-02-11T11:28:57.483Z,100730.53
2023-02-11T11:31:32.479Z,100742.97
2023-02-11T11:34:03.175Z,100736.53
2023-02-11T11:36:37.649Z,100736.22
2023-02-11T11:39:20.349Z,100735.38
2023-02-11T11:41:54.060Z,100756.44
2023-02-11T11:44:31.678Z,100750.75
2023-02-11T11:47:39.287Z,100754.25
2023-02-11T11:50:26.856Z,100760.91
2023-02-11T11:53:01.705Z,100778.75
2023-02-11T11:55:36.569Z,100786.03
2023-02-11T11:58:07.036Z,100796.63
2023-02-11T12:00:42.804Z,100801.41
2023-02-11T12:03:41.694Z,100821.09
2023-02-11T12:06:28.224Z,100827.22
2023-02-11T12:09:09.069Z,100827.22
2023-02-11T12:11:55.010Z,100834.19
2023-02-11T12:14:36.327Z,100849.94
2023-02-11T12:17:12.750Z,100843.59
2023-02-11T12:20:13.137Z,100866.44
2023-02-11T12:22:53.002Z,100856.47
2023-02-11T12:25:28.373Z,100867.38
2023-02-11T12:28:09.206Z,100870.19
2023-02-11T12:30:51.155Z,100877.28
2023-02-11T12:33:36.428Z,100891.47
2023-02-11T12:36:12.441Z,100878.34
2023-02-11T12:38:56.201Z,100887.00
2023-02-11T12:41:55.574Z,100891.31
2023-02-11T12:44:35.484Z,100892.16
2023-02-11T12:47:15.388Z,100898.13
2023-02-11T12:49:58.957Z,100909.56
2023-02-11T12:52:43.499Z,100909.41
2023-02-11T12:55:21.857Z,100912.28
2023-02-11T12:57:51.842Z,100917.28
2023-02-11T13:00:24.924Z,100928.94
2023-02-11T13:03:00.500Z,100919.00
2023-02-11T13:05:31.124Z,100926.66
2023-02-11T13:08:05.914Z,100928.50
2023-02-11T13:10:37.720Z,100927.81
2023-02-11T13:13:18.944Z,100944.09
2023-02-11T13:15:51.676Z,100932.19
2023-02-11T13:18:32.009Z,100939.53
2023-02-11T13:21:09.836Z,100947.34
2023-02-11T13:23:46.054Z,100962.56
2023-02-11T13:26:21.108Z,100972.88
2023-02-11T13:28:56.392Z,100971.22
2023-02-11T13:31:27.614Z,100972.78
2023-02-11T13:33:56.021Z,100979.69
2023-02-11T13:36:27.085Z,100994.50
2023-02-11T13:39:08.132Z,101000.81
2023-02-11T13:41:42.030Z,101007.63
2023-02-11T13:44:28.827Z,101026.72
2023-02-11T13:47:01.498Z,101029.38
2023-02-11T13:49:37.691Z,101030.13
2023-02-11T13:52:17.958Z,101026.09
2023-02-11T13:54:52.002Z,101031.13
2023-02-11T13:57:36.107Z,101045.00
2023-02-11T14:00:40.592Z,101043.91
2023-02-11T14:03:49.673Z,101055.19
2023-02-11T14:06:42.767Z,101076.38
2023-02-11T14:09:36.414Z,101073.88
2023-02-11T14:12:32.381Z,101077.78
2023-02-11T14:15:06.023Z,101091.16
2023-02-11T14:17:36.176Z,101096.59
2023-02-11T14:20:25.946Z,101100.53
2023-02-11T14:22:55.020Z,101111.97
2023-02-11T14:25:26.192Z,101115.91
2023-02-11T14:28:02.616Z,101117.56
2023-02-11T14:30:50.688Z,101124.38
2023-02-11T14:33:44.827Z,101143.59
2023-02-11T14:36:35.129Z,101149.47
2023-02-11T14:39:10.979Z,101151.41
2023-02-11T14:41:43.069Z,101162.00
2023-02-11T14:44:17.569Z,101148.22
2023-02-11T14:46:47.516Z,101165.81
2023-02-11T14:49:22.633Z,101185.63
2023-02-11T14:51:54.281Z,101195.38
2023-02-11T14:54:26.875Z,101205.31
2023-02-11T14:57:16.951Z,101203.22
2023-02-11T14:59:59.201Z,101209.63
2023-02-11T15:02:32.151Z,101206.44
2023-02-11T15:05:17.723Z,101224.97
2023-02-11T15:07:49.147Z,101220.94
2023-02-11T15:10:36.498Z,101225.53
2023-02-11T15:13:06.422Z,101226.78
2023-02-11T15:15:37.914Z,101233.34
2023-02-11T15:18:07.036Z,101248.66
2023-02-11T15:20:36.045Z,101255.47
2023-02-11T15:23:09.560Z,101266.63
2023-02-11T15:25:46.137Z,101274.41
2023-02-11T15:28:23.165Z,101278.31
2023-02-11T15:31:00.859Z,101278.00
2023-02-11T15:33:33.134Z,101276.06
2023-02-11T15:36:04.817Z,101282.97
2023-02-11T15:38:33.409Z,101302.88
2023-02-11T15:41:03.698Z,101300.34
2023-02-11T15:43:45.719Z,101309.50
2023-02-11T15:46:18.468Z,101318.25
2023-02-11T15:48:49.107Z,101311.91
2023-02-11T15:51:22.320Z,101320.38
2023-02-11T15:53:57.021Z,101328.13
2023-02-11T15:56:31.175Z,101329.03
2023-02-11T15:59:01.571Z,101342.78
2023-02-11T16:01:34.340Z,101341.72
2023-02-11T16:04:05.492Z,101346.25
2023-02-11T16:06:39.635Z,101344.97
2023-02-11T16:09:25.422Z,101353.75
2023-02-11T16:11:59.006Z,101356.31
2023-02-11T16:14:32.720Z,101363.91
2023-02-11T16:17:06.642Z,101370.75
2023-02-11T16:19:36.225Z,101377.63
2023-02-11T16:22:11.561Z,101377.28
2023-02-11T16:24:40.882Z,101379.69
2023-02-11T16:27:23.613Z,101368.09
2023-02-11T16:29:53.370Z,101383.56
2023-02-11T16:32:24.745Z,101389.56
2023-02-11T16:34:55.237Z,101394.63
2023-02-11T16:37:23.641Z,101401.09
2023-02-11T16:39:54.520Z,101407.66
2023-02-11T16:42:23.398Z,101408.50
2023-02-11T16:44:51.738Z,101422.88
2023-02-11T16:47:24.829Z,101415.78
2023-02-11T16:49:54.547Z,101412.31
2023-02-11T16:52:23.827Z,101426.28
2023-02-11T16:54:52.488Z,101424.72
2023-02-11T16:57:22.751Z,101444.72
2023-02-11T16:59:51.631Z,101438.22
2023-02-11T17:02:26.526Z,101430.66
2023-02-11T17:05:00.629Z,101441.53
2023-02-11T17:07:29.986Z,101446.28
2023-02-11T17:09:58.674Z,101449.13
2023-02-11T17:12:27.274Z,101448.56
2023-02-11T17:14:56.403Z,101457.50
2023-02-11T17:17:26.097Z,101446.56
2023-02-11T17:19:54.365Z,101460.72
2023-02-11T17:22:22.625Z,101457.34
2023-02-11T17:24:51.028Z,101481.25
2023-02-11T17:27:19.373Z,101495.47
2023-02-11T17:29:47.657Z,101494.63
2023-02-11T17:32:16.145Z,101498.56
2023-02-11T17:34:45.969Z,101508.13
2023-02-11T17:37:14.236Z,101510.16
2023-02-11T17:39:42.541Z,101508.91
2023-02-11T17:42:11.838Z,101524.78
2023-02-11T17:44:40.162Z,101536.41
2023-02-11T17:47:08.448Z,101544.31
2023-02-11T17:49:36.684Z,101549.13
2023-02-11T17:52:12.153Z,101553.03
2023-02-11T17:54:40.505Z,101560.31
2023-02-11T17:57:08.689Z,101559.69
2023-02-11T17:59:36.953Z,101559.03
2023-02-11T18:02:05.876Z,101562.84
2023-02-11T18:04:34.900Z,101572.63
2023-02-11T18:07:03.162Z,101579.03
2023-02-11T18:09:32.888Z,101587.25
2023-02-11T18:12:01.189Z,101582.41
2023-02-11T18:14:29.375Z,101578.41
2023-02-11T18:16:57.780Z,101582.06
2023-02-11T18:19:26.226Z,101589.25
2023-02-11T18:21:54.480Z,101591.13
2023-02-11T18:24:22.820Z,101597.63
2023-02-11T18:26:52.460Z,101597.97
2023-02-11T18:29:20.812Z,101605.84
2023-02-11T18:31:49.014Z,101616.47
2023-02-11T18:34:17.465Z,101619.28
2023-02-11T18:36:45.895Z,101622.13
2023-02-11T18:39:14.084Z,101626.53
2023-02-11T18:41:43.679Z,101627.78
2023-02-11T18:44:14.717Z,101632.41
2023-02-11T18:46:42.908Z,101635.13
2023-02-11T18:49:13.282Z,101652.78
2023-02-11T18:51:41.586Z,101657.28
2023-02-11T18:54:10.584Z,101650.25
2023-02-11T18:56:38.812Z,101648.56
2023-02-11T18:59:07.368Z,101645.84
2023-02-11T19:01:40.080Z,101652.78
2023-02-11T19:04:08.533Z,101650.25
2023-02-11T19:06:38.670Z,101658.78
2023-02-11T19:09:09.946Z,101647.44
2023-02-11T19:11:50.526Z,101650.81
2023-02-11T19:14:22.311Z,101650.81
2023-02-11T19:16:53.654Z,101646.50
2023-02-11T19:19:23.818Z,101665.72
2023-02-11T19:21:52.370Z,101662.16
2023-02-11T19:24:21.005Z,101665.72
2023-02-11T19:26:50.951Z,101670.25
2023-02-11T19:29:19.559Z,101662.44
2023-02-11T19:31:48.124Z,101664.53
2023-02-11T19:34:21.122Z,101671.59
2023-02-11T19:36:50.536Z,101673.25
2023-02-11T19:39:19.022Z,101677.78
2023-02-11T19:41:47.276Z,101677.88
2023-02-11T19:44:16.255Z,101676.94
2023-02-11T19:46:44.818Z,101677.97
2023-02-11T19:49:23.266Z,101673.84
2023-02-11T19:51:54.279Z,101674.59
2023-02-11T19:54:23.309Z,101675.09
2023-02-11T19:56:51.495Z,101681.06
2023-02-11T19:59:19.914Z,101681.31
2023-02-11T20:01:49.230Z,101688.97
2023-02-11T20:04:19.864Z,101681.31
2023-02-11T20:06:49.557Z,101682.25
2023-02-11T20:09:17.909Z,101686.56
2023-02-11T20:11:46.109Z,101693.28
2023-02-11T20:14:15.982Z,101688.03
2023-02-11T20:16:49.293Z,101693.28
2023-02-11T20:19:21.747Z,101681.91
2023-02-11T20:21:53.392Z,101681.31
2023-02-11T20:24:21.613Z,101689.19
2023-02-11T20:26:55.400Z,101686.75
2023-02-11T20:29:24.456Z,101685.91
2023-02-11T20:31:52.796Z,101695.56
2023-02-11T20:34:22.637Z,101687.97
2023-02-11T20:37:05.471Z,101693.22
2023-02-11T20:39:35.897Z,101686.19
2023-02-11T20:42:04.255Z,101702.88
2023-02-11T20:44:32.637Z,101705.50
2023-02-11T20:47:00.809Z,101697.84
2023-02-11T20:49:30.538Z,101700.75
2023-02-11T20:51:59.780Z,101704.41
2023-02-11T20:54:28.114Z,101708.16
2023-02-11T20:56:58.216Z,101711.19
2023-02-11T20:59:27.226Z,101707.78
2023-02-11T21:01:57.110Z,101712.38
2023-02-11T21:04:27.130Z,101717.81
2023-02-11T21:06:59.598Z,101721.59
2023-02-11T21:09:30.421Z,101730.69
2023-02-11T21:11:58.855Z,101730.41
2023-02-11T21:14:28.303Z,101728.91
2023-02-11T21:16:56.816Z,101739.03
2023-02-11T21:19:25.054Z,101738.94
2023-02-11T21:21:54.889Z,101741.56
2023-02-11T21:24:24.980Z,101749.44
2023-02-11T21:26:53.296Z,101751.31
2023-02-11T21:29:21.550Z,101756.56
2023-02-11T21:31:51.465Z,101760.22
2023-02-11T21:34:20.830Z,101769.78
2023-02-11T21:36:51.369Z,101762.00
2023-02-11T21:39:20.310Z,101763.78
2023-02-11T21:41:50.174Z,101766.50
2023-02-11T21:44:18.529Z,101763.88
2023-02-11T21:46:47.798Z,101772.59
2023-02-11T21:49:16.064Z,101778.69
2023-02-11T21:51:44.287Z,101769.22
2023-02-11T21:54:16.040Z,101776.25
2023-02-11T21:56:44.620Z,101779.63
2023-02-11T21:59:15.021Z,101774.56
2023-02-11T22:01:43.664Z,101776.44
2023-02-11T22:04:11.969Z,101781.88
2023-02-11T22:06:40.887Z,101782.63
2023-02-11T22:09:11.653Z,101789.75
2023-02-11T22:11:40.051Z,101783.47
2023-02-11T22:14:08.935Z,101796.41
2023-02-11T22:16:38.776Z,101806.13
2023-02-11T22:19:07.678Z,101808.50
2023-02-11T22:21:36.054Z,101812.06
2023-02-11T22:24:04.299Z,101810.88
2023-02-11T22:26:32.578Z,101815.19
2023-02-11T22:29:00.853Z,101819.50
2023-02-11T22:31:31.136Z,101815.09
2023-02-11T22:34:02.185Z,101819.41
2023-02-11T22:36:32.167Z,101807.22
2023-02-11T22:39:03.112Z,101814.03
2023-02-11T22:41:31.645Z,101812.25
2023-02-11T22:44:00.003Z,101826.16
2023-02-11T22:46:28.305Z,101821.81
2023-02-11T22:48:56.822Z,101813.00
2023-02-11T22:51:30.423Z,101804.38
2023-02-11T22:54:00.585Z,101805.69
2023-02-11T22:56:36.404Z,101792.66
2023-02-11T22:59:07.488Z,101796.13
2023-02-11T23:01:36.483Z,101789.19
2023-02-11T23:04:06.681Z,101790.03
2023-02-11T23:06:36.416Z,101784.13
2023-02-11T23:09:05.423Z,101779.63
2023-02-11T23:11:34.331Z,101774.09
2023-02-11T23:14:03.693Z,101776.66
2023-02-11T23:16:34.147Z,101770.34
2023-02-11T23:19:04.006Z,101760.81
2023-02-11T23:21:34.595Z,101774.78
2023-02-11T23:24:07.270Z,101767.84
2023-02-11T23:26:35.862Z,101774.88
2023-02-11T23:29:04.091Z,101784.97
2023-02-11T23:31:35.104Z,101784.88
2023-02-11T23:34:03.595Z,101782.25
2023-02-11T23:36:32.313Z,101790.91
2023-02-11T23:39:00.545Z,101777.94
2023-02-11T23:41:30.358Z,101785.63
2023-02-11T23:43:59.411Z,101787.25
2023-02-11T23:46:28.644Z,101793.25
2023-02-11T23:48:56.851Z,101800.28
2023-02-11T23:51:27.266Z,101783.78
2023-02-11T23:53:56.277Z,101789.03
2023-02-11T23:56:27.583Z,101805.53
2023-02-11T23:58:59.201Z,101789.13
